sensor_id;sensor_type;location;lat;lon;timestamp;pressure;altitude;pressure_sealevel;temperature;humidity
22206;BME280;11272;50.104;8.754;2024-03-08T00:00:18;100798.16;;;7.70;48.54
22206;BME280;11272;50.104;8.754;2024-03-08T00:02:47;100794.66;;;7.68;48.57
22206;BME280;11272;50.104;8.754;2024-03-08T00:05:15;100793.75;;;7.64;48.85
22206;BME280;11272;50.104;8.754;2024-03-08T00:07:42;100795.56;;;7.57;48.51
22206;BME280;11272;50.104;8.754;2024-03-08T00:10:12;100796.44;;;7.53;48.79
22206;BME280;11272;50.104;8.754;2024-03-08T00:12:43;100800.00;;;7.49;48.66
22206;BME280;11272;50.104;8.754;2024-03-08T00:15:09;100794.72;;;7.46;48.72
22206;BME280;11272;50.104;8.754;2024-03-08T00:17:50;100790.34;;;7.39;48.89
22206;BME280;11272;50.104;8.754;2024-03-08T00:20:16;100792.13;;;7.36;48.80
22206;BME280;11272;50.104;8.754;2024-03-08T00:22:45;100792.09;;;7.33;49.08
22206;BME280;11272;50.104;8.754;2024-03-08T00:25:11;100787.72;;;7.30;48.87
22206;BME280;11272;50.104;8.754;2024-03-08T00:27:37;100784.22;;;7.31;48.76
22206;BME280;11272;50.104;8.754;2024-03-08T00:30:04;100785.97;;;7.29;49.42
22206;BME280;11272;50.104;8.754;2024-03-08T00:32:31;100783.34;;;7.26;49.10
22206;BME280;11272;50.104;8.754;2024-03-08T00:34:57;100780.69;;;7.23;49.43
22206;BME280;11272;50.104;8.754;2024-03-08T00:37:23;100786.00;;;7.20;49.49
22206;BME280;11272;50.104;8.754;2024-03-08T00:39:51;100783.34;;;7.17;49.63
22206;BME280;11272;50.104;8.754;2024-03-08T00:42:20;100779.84;;;7.12;49.92
22206;BME280;11272;50.104;8.754;2024-03-08T00:44:46;100778.09;;;7.09;49.89
22206;BME280;11272;50.104;8.754;2024-03-08T00:47:13;100779.84;;;7.06;49.92
22206;BME280;11272;50.104;8.754;2024-03-08T00:49:41;100781.63;;;7.02;49.99
22206;BME280;11272;50.104;8.754;2024-03-08T00:52:07;100780.75;;;6.99;49.72
22206;BME280;11272;50.104;8.754;2024-03-08T00:54:36;100775.47;;;6.96;49.89
22206;BME280;11272;50.104;8.754;2024-03-08T00:57:04;100768.44;;;6.92;50.08
22206;BME280;11272;50.104;8.754;2024-03-08T00:59:32;100761.38;;;6.85;50.35
22206;BME280;11272;50.104;8.754;2024-03-08T01:02:01;100763.16;;;6.84;50.20
22206;BME280;11272;50.104;8.754;2024-03-08T01:04:27;100757.00;;;6.82;50.38
22206;BME280;11272;50.104;8.754;2024-03-08T01:06:56;100758.75;;;6.78;50.28
22206;BME280;11272;50.104;8.754;2024-03-08T01:09:23;100749.97;;;6.76;50.71
22206;BME280;11272;50.104;8.754;2024-03-08T01:11:50;100753.50;;;6.72;50.48
22206;BME280;11272;50.104;8.754;2024-03-08T01:14:18;100749.97;;;6.70;50.88
22206;BME280;11272;50.104;8.754;2024-03-08T01:16:44;100749.09;;;6.65;51.03
22206;BME280;11272;50.104;8.754;2024-03-08T01:19:10;100745.56;;;6.63;50.79
22206;BME280;11272;50.104;8.754;2024-03-08T01:21:37;100740.31;;;6.60;51.00
22206;BME280;11272;50.104;8.754;2024-03-08T01:24:04;100735.91;;;6.59;51.12
22206;BME280;11272;50.104;8.754;2024-03-08T01:26:32;100736.78;;;6.55;51.27
22206;BME280;11272;50.104;8.754;2024-03-08T01:29:00;100728.88;;;6.54;51.05
22206;BME280;11272;50.104;8.754;2024-03-08T01:31:29;100722.72;;;6.50;51.14
22206;BME280;11272;50.104;8.754;2024-03-08T01:33:56;100722.72;;;6.47;51.36
22206;BME280;11272;50.104;8.754;2024-03-08T01:36:22;100713.94;;;6.42;51.56
22206;BME280;11272;50.104;8.754;2024-03-08T01:38:47;100711.31;;;6.41;51.40
22206;BME280;11272;50.104;8.754;2024-03-08T01:41:13;100710.41;;;6.37;51.61
22206;BME280;11272;50.104;8.754;2024-03-08T01:43:39;100706.91;;;6.35;51.38
22206;BME280;11272;50.104;8.754;2024-03-08T01:46:06;100707.78;;;6.32;52.05
22206;BME280;11272;50.104;8.754;2024-03-08T01:48:34;100707.78;;;6.32;51.95
22206;BME280;11272;50.104;8.754;2024-03-08T01:51:00;100696.34;;;6.32;52.13
22206;BME280;11272;50.104;8.754;2024-03-08T01:53:29;100706.00;;;6.27;52.07
22206;BME280;11272;50.104;8.754;2024-03-08T01:55:59;100698.97;;;6.26;52.08
22206;BME280;11272;50.104;8.754;2024-03-08T01:58:29;100693.69;;;6.26;52.23
22206;BME280;11272;50.104;8.754;2024-03-08T02:00:56;100694.59;;;6.25;51.76
22206;BME280;11272;50.104;8.754;2024-03-08T02:03:22;100695.47;;;6.22;52.13
22206;BME280;11272;50.104;8.754;2024-03-08T02:05:48;100689.31;;;6.19;52.06
22206;BME280;11272;50.104;8.754;2024-03-08T02:08:14;100684.91;;;6.16;52.32
22206;BME280;11272;50.104;8.754;2024-03-08T02:10:41;100683.16;;;6.12;51.98
22206;BME280;11272;50.104;8.754;2024-03-08T02:13:07;100676.13;;;6.10;52.38
22206;BME280;11272;50.104;8.754;2024-03-08T02:15:53;100675.25;;;6.08;52.40
22206;BME280;11272;50.104;8.754;2024-03-08T02:18:19;100674.38;;;6.03;52.33
22206;BME280;11272;50.104;8.754;2024-03-08T02:21:01;100670.88;;;5.98;52.64
22206;BME280;11272;50.104;8.754;2024-03-08T02:23:27;100671.72;;;5.95;52.78
22206;BME280;11272;50.104;8.754;2024-03-08T02:25:54;100669.97;;;5.91;52.57
22206;BME280;11272;50.104;8.754;2024-03-08T02:28:22;100675.22;;;5.89;53.03
22206;BME280;11272;50.104;8.754;2024-03-08T02:30:52;100666.41;;;5.84;52.96
22206;BME280;11272;50.104;8.754;2024-03-08T02:33:22;100670.78;;;5.82;53.46
22206;BME280;11272;50.104;8.754;2024-03-08T02:35:49;100671.69;;;5.81;52.87
22206;BME280;11272;50.104;8.754;2024-03-08T02:38:19;100671.69;;;5.81;53.53
22206;BME280;11272;50.104;8.754;2024-03-08T02:40:47;100668.16;;;5.79;52.86
22206;BME280;11272;50.104;8.754;2024-03-08T02:43:13;100669.03;;;5.78;53.14
22206;BME280;11272;50.104;8.754;2024-03-08T02:45:43;100672.53;;;5.79;53.50
22206;BME280;11272;50.104;8.754;2024-03-08T02:48:09;100662.00;;;5.77;53.21
22206;BME280;11272;50.104;8.754;2024-03-08T02:50:39;100664.63;;;5.79;53.51
22206;BME280;11272;50.104;8.754;2024-03-08T02:53:06;100654.09;;;5.77;53.50
22206;BME280;11272;50.104;8.754;2024-03-08T02:55:31;100660.25;;;5.76;53.13
22206;BME280;11272;50.104;8.754;2024-03-08T02:57:59;100658.50;;;5.75;52.93
22206;BME280;11272;50.104;8.754;2024-03-08T03:00:24;100661.13;;;5.74;53.03
22206;BME280;11272;50.104;8.754;2024-03-08T03:02:50;100652.34;;;5.69;53.43
22206;BME280;11272;50.104;8.754;2024-03-08T03:05:20;100666.41;;;5.66;53.83
22206;BME280;11272;50.104;8.754;2024-03-08T03:07:45;100656.72;;;5.61;53.74
22206;BME280;11272;50.104;8.754;2024-03-08T03:10:11;100652.31;;;5.58;53.62
22206;BME280;11272;50.104;8.754;2024-03-08T03:12:37;100655.81;;;5.54;54.19
22206;BME280;11272;50.104;8.754;2024-03-08T03:15:04;100652.28;;;5.50;54.04
22206;BME280;11272;50.104;8.754;2024-03-08T03:17:30;100653.16;;;5.46;54.30
22206;BME280;11272;50.104;8.754;2024-03-08T03:19:55;100647.91;;;5.43;54.36
22206;BME280;11272;50.104;8.754;2024-03-08T03:22:21;100649.63;;;5.38;54.46
22206;BME280;11272;50.104;8.754;2024-03-08T03:24:47;100649.63;;;5.34;54.40
22206;BME280;11272;50.104;8.754;2024-03-08T03:27:13;100646.09;;;5.29;54.24
22206;BME280;11272;50.104;8.754;2024-03-08T03:29:41;100644.31;;;5.25;54.72
22206;BME280;11272;50.104;8.754;2024-03-08T03:32:14;100642.53;;;5.19;54.93
22206;BME280;11272;50.104;8.754;2024-03-08T03:34:40;100638.13;;;5.15;54.69
22206;BME280;11272;50.104;8.754;2024-03-08T03:37:08;100637.25;;;5.13;54.95
22206;BME280;11272;50.104;8.754;2024-03-08T03:39:38;100636.34;;;5.09;55.17
22206;BME280;11272;50.104;8.754;2024-03-08T03:42:15;100624.94;;;5.07;55.11
22206;BME280;11272;50.104;8.754;2024-03-08T03:44:46;100624.06;;;5.05;54.96
22206;BME280;11272;50.104;8.754;2024-03-08T03:47:13;100631.09;;;5.05;54.84
22206;BME280;11272;50.104;8.754;2024-03-08T03:49:40;100623.19;;;5.06;55.04
22206;BME280;11272;50.104;8.754;2024-03-08T03:52:06;100632.81;;;5.07;55.08
22206;BME280;11272;50.104;8.754;2024-03-08T03:54:32;100625.84;;;5.06;55.15
22206;BME280;11272;50.104;8.754;2024-03-08T03:56:58;100623.19;;;5.05;55.54
22206;BME280;11272;50.104;8.754;2024-03-08T03:59:24;100622.31;;;5.01;55.48
22206;BME280;11272;50.104;8.754;2024-03-08T04:04:33;100617.88;;;4.97;55.47
22206;BME280;11272;50.104;8.754;2024-03-08T04:06:59;100627.53;;;4.95;55.90
22206;BME280;11272;50.104;8.754;2024-03-08T04:09:25;100622.28;;;4.95;55.59
22206;BME280;11272;50.104;8.754;2024-03-08T04:11:51;100622.25;;;4.92;55.82
22206;BME280;11272;50.104;8.754;2024-03-08T04:14:18;100620.50;;;4.90;55.95
22206;BME280;11272;50.104;8.754;2024-03-08T04:16:44;100623.97;;;4.87;55.96
22206;BME280;11272;50.104;8.754;2024-03-08T04:19:09;100626.59;;;4.83;56.27
22206;BME280;11272;50.104;8.754;2024-03-08T04:21:35;100616.94;;;4.80;56.51
22206;BME280;11272;50.104;8.754;2024-03-08T04:24:01;100620.44;;;4.78;56.33
22206;BME280;11272;50.104;8.754;2024-03-08T04:26:26;100626.56;;;4.77;56.49
22206;BME280;11272;50.104;8.754;2024-03-08T04:28:54;100622.19;;;4.74;56.40
22206;BME280;11272;50.104;8.754;2024-03-08T04:31:23;100621.28;;;4.72;56.76
22206;BME280;11272;50.104;8.754;2024-03-08T04:33:48;100624.78;;;4.70;56.48
22206;BME280;11272;50.104;8.754;2024-03-08T04:36:15;100626.50;;;4.66;56.76
22206;BME280;11272;50.104;8.754;2024-03-08T04:38:41;100629.13;;;4.63;56.55
22206;BME280;11272;50.104;8.754;2024-03-08T04:41:07;100622.13;;;4.63;56.96
22206;BME280;11272;50.104;8.754;2024-03-08T04:43:34;100610.75;;;4.64;57.03
22206;BME280;11272;50.104;8.754;2024-03-08T04:46:00;100612.47;;;4.62;57.06
22206;BME280;11272;50.104;8.754;2024-03-08T04:48:25;100609.81;;;4.61;57.34
22206;BME280;11272;50.104;8.754;2024-03-08T04:50:55;100612.44;;;4.59;56.87
22206;BME280;11272;50.104;8.754;2024-03-08T04:53:21;100620.31;;;4.59;57.21
22206;BME280;11272;50.104;8.754;2024-03-08T04:55:47;100610.66;;;4.55;57.48
22206;BME280;11272;50.104;8.754;2024-03-08T04:58:16;100610.69;;;4.54;57.16
22206;BME280;11272;50.104;8.754;2024-03-08T05:00:41;100614.16;;;4.51;57.39
22206;BME280;11272;50.104;8.754;2024-03-08T05:03:07;100612.38;;;4.49;57.45
22206;BME280;11272;50.104;8.754;2024-03-08T05:05:33;100613.25;;;4.46;57.48
22206;BME280;11272;50.104;8.754;2024-03-08T05:07:59;100609.72;;;4.44;57.35
22206;BME280;11272;50.104;8.754;2024-03-08T05:10:27;100605.34;;;4.43;57.47
22206;BME280;11272;50.104;8.754;2024-03-08T05:12:52;100607.09;;;4.43;57.93
22206;BME280;11272;50.104;8.754;2024-03-08T05:15:18;100594.81;;;4.42;57.47
22206;BME280;11272;50.104;8.754;2024-03-08T05:17:48;100607.94;;;4.39;57.60
22206;BME280;11272;50.104;8.754;2024-03-08T05:20:14;100600.03;;;4.36;57.90
22206;BME280;11272;50.104;8.754;2024-03-08T05:22:40;100603.50;;;4.33;57.76
22206;BME280;11272;50.104;8.754;2024-03-08T05:25:06;100600.91;;;4.32;57.84
22206;BME280;11272;50.104;8.754;2024-03-08T05:27:34;100597.38;;;4.30;57.74
22206;BME280;11272;50.104;8.754;2024-03-08T05:30:00;100593.00;;;4.30;58.20
22206;BME280;11272;50.104;8.754;2024-03-08T05:32:26;100597.38;;;4.30;58.02
22206;BME280;11272;50.104;8.754;2024-03-08T05:34:51;100599.13;;;4.29;58.27
22206;BME280;11272;50.104;8.754;2024-03-08T05:37:17;100599.09;;;4.28;57.88
22206;BME280;11272;50.104;8.754;2024-03-08T05:39:45;100592.09;;;4.27;58.00
22206;BME280;11272;50.104;8.754;2024-03-08T05:42:11;100596.47;;;4.24;58.24
22206;BME280;11272;50.104;8.754;2024-03-08T05:44:36;100593.81;;;4.23;58.33
22206;BME280;11272;50.104;8.754;2024-03-08T05:47:03;100585.03;;;4.19;58.21
22206;BME280;11272;50.104;8.754;2024-03-08T05:49:31;100588.53;;;4.18;58.36
22206;BME280;11272;50.104;8.754;2024-03-08T05:51:56;100581.50;;;4.17;58.34
22206;BME280;11272;50.104;8.754;2024-03-08T05:54:22;100591.13;;;4.14;58.36
22206;BME280;11272;50.104;8.754;2024-03-08T05:56:49;100588.53;;;4.15;58.75
22206;BME280;11272;50.104;8.754;2024-03-08T05:59:18;100590.25;;;4.13;58.42
22206;BME280;11272;50.104;8.754;2024-03-08T06:01:43;100587.63;;;4.15;58.21
22206;BME280;11272;50.104;8.754;2024-03-08T06:04:11;100593.75;;;4.14;58.85
22206;BME280;11272;50.104;8.754;2024-03-08T06:06:36;100589.38;;;4.13;59.08
22206;BME280;11272;50.104;8.754;2024-03-08T06:09:05;100588.47;;;4.12;58.92
22206;BME280;11272;50.104;8.754;2024-03-08T06:11:43;100585.88;;;4.14;58.72
22206;BME280;11272;50.104;8.754;2024-03-08T06:14:09;100585.03;;;4.16;58.87
22206;BME280;11272;50.104;8.754;2024-03-08T06:16:34;100582.38;;;4.18;58.96
22206;BME280;11272;50.104;8.754;2024-03-08T06:19:01;100584.16;;;4.19;58.76
22206;BME280;11272;50.104;8.754;2024-03-08T06:21:29;100580.66;;;4.23;58.74
22206;BME280;11272;50.104;8.754;2024-03-08T06:23:55;100589.47;;;4.27;59.07
22206;BME280;11272;50.104;8.754;2024-03-08T06:26:23;100578.09;;;4.29;59.00
22206;BME280;11272;50.104;8.754;2024-03-08T06:28:52;100579.00;;;4.33;59.00
22206;BME280;11272;50.104;8.754;2024-03-08T06:31:18;100586.91;;;4.37;59.36
22206;BME280;11272;50.104;8.754;2024-03-08T06:33:43;100582.53;;;4.41;59.07
22206;BME280;11272;50.104;8.754;2024-03-08T06:36:16;100583.44;;;4.43;59.24
22206;BME280;11272;50.104;8.754;2024-03-08T06:38:45;100581.72;;;4.48;59.22
22206;BME280;11272;50.104;8.754;2024-03-08T06:41:13;100584.38;;;4.52;59.25
22206;BME280;11272;50.104;8.754;2024-03-08T06:43:44;100581.78;;;4.58;59.08
22206;BME280;11272;50.104;8.754;2024-03-08T06:46:18;100580.94;;;4.64;59.01
22206;BME280;11272;50.104;8.754;2024-03-08T06:48:46;100573.06;;;4.69;59.61
22206;BME280;11272;50.104;8.754;2024-03-08T06:51:12;100576.59;;;4.77;59.28
22206;BME280;11272;50.104;8.754;2024-03-08T06:53:39;100580.13;;;4.85;58.97
22206;BME280;11272;50.104;8.754;2024-03-08T06:56:05;100578.41;;;4.91;59.57
22206;BME280;11272;50.104;8.754;2024-03-08T06:58:31;100581.06;;;5.00;59.20
22206;BME280;11272;50.104;8.754;2024-03-08T07:00:58;100571.44;;;5.10;59.06
22206;BME280;11272;50.104;8.754;2024-03-08T07:03:25;100579.38;;;5.21;59.58
22206;BME280;11272;50.104;8.754;2024-03-08T07:05:52;100567.97;;;5.29;59.24
22206;BME280;11272;50.104;8.754;2024-03-08T07:08:18;100570.63;;;5.40;59.28
22206;BME280;11272;50.104;8.754;2024-03-08T07:10:44;100562.75;;;5.46;59.52
22206;BME280;11272;50.104;8.754;2024-03-08T07:13:10;100559.25;;;5.50;59.35
22206;BME280;11272;50.104;8.754;2024-03-08T07:15:36;100561.00;;;5.57;59.29
22206;BME280;11272;50.104;8.754;2024-03-08T07:18:01;100556.63;;;5.64;59.25
22206;BME280;11272;50.104;8.754;2024-03-08T07:20:27;100555.75;;;5.71;59.22
22206;BME280;11272;50.104;8.754;2024-03-08T07:22:54;100555.75;;;5.75;58.92
22206;BME280;11272;50.104;8.754;2024-03-08T07:25:19;100553.13;;;5.80;58.92
22206;BME280;11272;50.104;8.754;2024-03-08T07:27:53;100544.31;;;5.85;58.78
22206;BME280;11272;50.104;8.754;2024-03-08T07:30:21;100547.00;;;5.91;58.67
22206;BME280;11272;50.104;8.754;2024-03-08T07:33:05;100540.81;;;6.00;58.52
22206;BME280;11272;50.104;8.754;2024-03-08T07:35:33;100539.94;;;6.09;58.76
22206;BME280;11272;50.104;8.754;2024-03-08T07:37:58;100542.56;;;6.16;58.39
22206;BME280;11272;50.104;8.754;2024-03-08T07:40:25;100540.81;;;6.24;58.24
22206;BME280;11272;50.104;8.754;2024-03-08T07:42:53;100532.88;;;6.35;58.50
22206;BME280;11272;50.104;8.754;2024-03-08T07:45:20;100527.56;;;6.44;58.50
22206;BME280;11272;50.104;8.754;2024-03-08T07:47:47;100527.50;;;6.53;58.47
22206;BME280;11272;50.104;8.754;2024-03-08T07:50:12;100517.78;;;6.64;58.10
22206;BME280;11272;50.104;8.754;2024-03-08T07:52:42;100514.22;;;6.76;58.05
22206;BME280;11272;50.104;8.754;2024-03-08T07:55:09;100518.56;;;6.88;57.84
22206;BME280;11272;50.104;8.754;2024-03-08T07:57:35;100513.22;;;7.00;58.00
22206;BME280;11272;50.104;8.754;2024-03-08T08:00:05;100505.19;;;7.16;57.77
22206;BME280;11272;50.104;8.754;2024-03-08T08:02:34;100505.06;;;7.35;57.79
22206;BME280;11272;50.104;8.754;2024-03-08T08:05:01;100511.06;;;7.53;57.66
22206;BME280;11272;50.104;8.754;2024-03-08T08:07:27;100501.25;;;7.74;57.22
22206;BME280;11272;50.104;8.754;2024-03-08T08:09:53;100494.84;;;7.96;56.94
22206;BME280;11272;50.104;8.754;2024-03-08T08:12:18;100497.81;;;8.50;57.41
22206;BME280;11272;50.104;8.754;2024-03-08T08:14:45;100489.72;;;9.24;57.82
22206;BME280;11272;50.104;8.754;2024-03-08T08:17:12;100485.09;;;9.92;57.50
22206;BME280;11272;50.104;8.754;2024-03-08T08:19:37;100480.25;;;10.60;57.64
22206;BME280;11272;50.104;8.754;2024-03-08T08:22:04;100475.16;;;11.28;56.03
22206;BME280;11272;50.104;8.754;2024-03-08T08:24:30;100475.75;;;11.77;54.56
22206;BME280;11272;50.104;8.754;2024-03-08T08:26:55;100469.41;;;12.15;53.73
22206;BME280;11272;50.104;8.754;2024-03-08T08:29:21;100462.75;;;12.62;52.63
22206;BME280;11272;50.104;8.754;2024-03-08T08:31:48;100457.09;;;13.02;51.52
22206;BME280;11272;50.104;8.754;2024-03-08T08:34:18;100449.44;;;13.47;50.49
22206;BME280;11272;50.104;8.754;2024-03-08T08:36:47;100447.44;;;14.05;50.09
22206;BME280;11272;50.104;8.754;2024-03-08T08:39:12;100429.56;;;14.57;48.90
22206;BME280;11272;50.104;8.754;2024-03-08T08:41:39;100429.66;;;15.00;47.98
22206;BME280;11272;50.104;8.754;2024-03-08T08:44:07;100424.13;;;15.27;46.25
22206;BME280;11272;50.104;8.754;2024-03-08T08:46:40;100419.88;;;15.43;45.96
22206;BME280;11272;50.104;8.754;2024-03-08T08:49:05;100424.94;;;15.71;44.80
22206;BME280;11272;50.104;8.754;2024-03-08T08:51:32;100415.06;;;15.93;43.92
22206;BME280;11272;50.104;8.754;2024-03-08T08:53:59;100414.94;;;16.16;43.21
22206;BME280;11272;50.104;8.754;2024-03-08T08:56:24;100403.13;;;16.20;42.50
22206;BME280;11272;50.104;8.754;2024-03-08T08:58:52;100403.31;;;16.36;42.20
22206;BME280;11272;50.104;8.754;2024-03-08T09:01:19;100400.41;;;16.61;41.40
22206;BME280;11272;50.104;8.754;2024-03-08T09:03:44;100396.91;;;16.77;40.73
22206;BME280;11272;50.104;8.754;2024-03-08T09:06:12;100397.38;;;16.48;39.92
22206;BME280;11272;50.104;8.754;2024-03-08T09:08:39;100389.72;;;16.20;39.44
22206;BME280;11272;50.104;8.754;2024-03-08T09:11:04;100379.47;;;16.30;39.32
22206;BME280;11272;50.104;8.754;2024-03-08T09:13:31;100389.13;;;16.14;38.82
22206;BME280;11272;50.104;8.754;2024-03-08T09:15:57;100384.47;;;15.98;38.83
22206;BME280;11272;50.104;8.754;2024-03-08T09:18:22;100376.13;;;15.86;38.44
22206;BME280;11272;50.104;8.754;2024-03-08T09:20:49;100375.25;;;15.85;38.59
22206;BME280;11272;50.104;8.754;2024-03-08T09:23:15;100376.03;;;15.87;38.11
22206;BME280;11272;50.104;8.754;2024-03-08T09:25:42;100360.78;;;16.28;38.30
22206;BME280;11272;50.104;8.754;2024-03-08T09:28:09;100356.53;;;16.62;37.66
22206;BME280;11272;50.104;8.754;2024-03-08T09:30:37;100367.22;;;16.63;37.33
22206;BME280;11272;50.104;8.754;2024-03-08T09:33:04;100353.56;;;16.49;37.03
22206;BME280;11272;50.104;8.754;2024-03-08T09:35:29;100339.94;;;16.54;36.83
22206;BME280;11272;50.104;8.754;2024-03-08T09:37:55;100347.84;;;16.75;36.77
22206;BME280;11272;50.104;8.754;2024-03-08T09:40:21;100332.94;;;17.06;36.40
22206;BME280;11272;50.104;8.754;2024-03-08T09:42:49;100329.59;;;17.19;36.04
22206;BME280;11272;50.104;8.754;2024-03-08T09:45:16;100326.91;;;17.54;35.66
22206;BME280;11272;50.104;8.754;2024-03-08T09:47:43;100318.94;;;17.87;35.40
22206;BME280;11272;50.104;8.754;2024-03-08T09:50:10;100316.78;;;17.93;34.93
22206;BME280;11272;50.104;8.754;2024-03-08T09:52:41;100298.16;;;18.06;34.83
22206;BME280;11272;50.104;8.754;2024-03-08T09:55:11;100300.19;;;18.18;34.52
22206;BME280;11272;50.104;8.754;2024-03-08T09:57:38;100308.94;;;18.22;33.96
22206;BME280;11272;50.104;8.754;2024-03-08T10:00:05;100289.31;;;18.37;33.97
22206;BME280;11272;50.104;8.754;2024-03-08T10:02:47;100289.00;;;18.59;33.95
22206;BME280;11272;50.104;8.754;2024-03-08T10:05:13;100289.88;;;18.75;33.14
22206;BME280;11272;50.104;8.754;2024-03-08T10:07:40;100279.94;;;18.91;33.44
22206;BME280;11272;50.104;8.754;2024-03-08T10:10:07;100274.69;;;19.04;32.74
22206;BME280;11272;50.104;8.754;2024-03-08T10:12:38;100273.81;;;19.03;32.77
22206;BME280;11272;50.104;8.754;2024-03-08T10:15:08;100275.78;;;18.70;32.46
22206;BME280;11272;50.104;8.754;2024-03-08T10:17:36;100271.38;;;18.69;32.83
22206;BME280;11272;50.104;8.754;2024-03-08T10:20:02;100277.34;;;18.89;32.55
22206;BME280;11272;50.104;8.754;2024-03-08T10:31:28;100256.81;;;19.03;31.49
22206;BME280;11272;50.104;8.754;2024-03-08T10:36:42;100245.84;;;19.35;31.15
22206;BME280;11272;50.104;8.754;2024-03-08T10:39:24;100249.09;;;19.56;31.39
22206;BME280;11272;50.104;8.754;2024-03-08T10:41:57;100237.66;;;19.95;31.26
22206;BME280;11272;50.104;8.754;2024-03-08T10:47:01;100222.56;;;21.28;30.61
22206;BME280;11272;50.104;8.754;2024-03-08T10:49:39;100222.34;;;21.69;30.27
22206;BME280;11272;50.104;8.754;2024-03-08T10:52:11;100214.03;;;22.10;29.60
22206;BME280;11272;50.104;8.754;2024-03-08T10:54:39;100201.28;;;22.49;28.86
22206;BME280;11272;50.104;8.754;2024-03-08T10:57:06;100212.63;;;22.54;28.41
22206;BME280;11272;50.104;8.754;2024-03-08T10:59:36;100207.06;;;22.32;28.15
22206;BME280;11272;50.104;8.754;2024-03-08T11:02:02;100205.59;;;22.15;28.20
22206;BME280;11272;50.104;8.754;2024-03-08T11:07:16;100192.22;;;22.01;28.24
22206;BME280;11272;50.104;8.754;2024-03-08T11:09:47;100184.50;;;22.07;28.28
22206;BME280;11272;50.104;8.754;2024-03-08T11:24:02;100172.66;;;23.16;27.19
22206;BME280;11272;50.104;8.754;2024-03-08T11:26:29;100168.16;;;23.39;26.94
22206;BME280;11272;50.104;8.754;2024-03-08T11:34:32;100142.69;;;23.64;26.21
22206;BME280;11272;50.104;8.754;2024-03-08T11:36:58;100145.03;;;23.79;26.09
22206;BME280;11272;50.104;8.754;2024-03-08T11:39:25;100145.78;;;23.81;25.92
22206;BME280;11272;50.104;8.754;2024-03-08T11:41:51;100133.69;;;24.19;25.96
22206;BME280;11272;50.104;8.754;2024-03-08T11:44:17;100130.44;;;24.68;25.14
22206;BME280;11272;50.104;8.754;2024-03-08T11:46:43;100128.38;;;24.81;24.72
22206;BME280;11272;50.104;8.754;2024-03-08T11:49:13;100137.38;;;24.18;24.72
22206;BME280;11272;50.104;8.754;2024-03-08T11:51:40;100132.09;;;23.72;24.83
22206;BME280;11272;50.104;8.754;2024-03-08T11:54:10;100120.13;;;23.52;25.11
22206;BME280;11272;50.104;8.754;2024-03-08T11:56:37;100114.41;;;23.33;25.18
22206;BME280;11272;50.104;8.754;2024-03-08T11:59:03;100117.53;;;23.39;25.30
22206;BME280;11272;50.104;8.754;2024-03-08T12:01:30;100115.28;;;23.33;25.08
22206;BME280;11272;50.104;8.754;2024-03-08T12:03:57;100107.13;;;23.11;25.03
22206;BME280;11272;50.104;8.754;2024-03-08T12:06:25;100114.00;;;22.69;25.44
22206;BME280;11272;50.104;8.754;2024-03-08T12:08:50;100103.44;;;22.42;25.52
22206;BME280;11272;50.104;8.754;2024-03-08T12:11:22;100098.41;;;22.49;25.56
22206;BME280;11272;50.104;8.754;2024-03-08T12:13:49;100098.63;;;22.46;25.48
22206;BME280;11272;50.104;8.754;2024-03-08T12:16:20;100094.91;;;22.59;24.89
22206;BME280;11272;50.104;8.754;2024-03-08T12:18:51;100087.63;;;22.12;25.25
22206;BME280;11272;50.104;8.754;2024-03-08T12:21:19;100087.72;;;21.74;25.56
22206;BME280;11272;50.104;8.754;2024-03-08T12:24:03;100083.72;;;21.80;25.90
22206;BME280;11272;50.104;8.754;2024-03-08T12:26:29;100080.09;;;22.05;26.08
22206;BME280;11272;50.104;8.754;2024-03-08T12:29:18;100078.00;;;22.56;25.78
22206;BME280;11272;50.104;8.754;2024-03-08T12:31:46;100074.31;;;22.81;25.63
22206;BME280;11272;50.104;8.754;2024-03-08T12:34:12;100073.13;;;23.07;25.31
22206;BME280;11272;50.104;8.754;2024-03-08T12:36:44;100074.63;;;23.33;25.29
22206;BME280;11272;50.104;8.754;2024-03-08T12:39:10;100068.00;;;23.48;25.26
22206;BME280;11272;50.104;8.754;2024-03-08T12:41:41;100056.28;;;23.70;25.13
22206;BME280;11272;50.104;8.754;2024-03-08T12:44:07;100061.59;;;23.49;24.35
22206;BME280;11272;50.104;8.754;2024-03-08T12:46:39;100062.53;;;23.15;25.05
22206;BME280;11272;50.104;8.754;2024-03-08T12:49:09;100052.03;;;22.88;25.08
22206;BME280;11272;50.104;8.754;2024-03-08T12:51:35;100043.78;;;22.90;25.37
22206;BME280;11272;50.104;8.754;2024-03-08T12:54:01;100047.06;;;22.71;25.06
22206;BME280;11272;50.104;8.754;2024-03-08T12:56:31;100036.31;;;22.58;25.50
22206;BME280;11272;50.104;8.754;2024-03-08T12:59:00;100038.09;;;22.82;25.43
22206;BME280;11272;50.104;8.754;2024-03-08T13:01:27;100049.13;;;22.67;25.36
22206;BME280;11272;50.104;8.754;2024-03-08T13:03:54;100035.69;;;22.66;25.57
22206;BME280;11272;50.104;8.754;2024-03-08T13:06:24;100025.34;;;22.60;25.42
22206;BME280;11272;50.104;8.754;2024-03-08T13:08:50;100025.19;;;22.50;25.17
22206;BME280;11272;50.104;8.754;2024-03-08T13:11:20;100020.97;;;22.00;25.44
22206;BME280;11272;50.104;8.754;2024-03-08T13:13:47;100022.66;;;22.01;25.85
22206;BME280;11272;50.104;8.754;2024-03-08T13:16:13;100011.59;;;22.28;25.84
22206;BME280;11272;50.104;8.754;2024-03-08T13:18:45;100006.69;;;22.33;25.66
22206;BME280;11272;50.104;8.754;2024-03-08T13:21:14;100006.13;;;22.52;25.60
22206;BME280;11272;50.104;8.754;2024-03-08T13:23:41;100001.13;;;22.58;25.51
22206;BME280;11272;50.104;8.754;2024-03-08T13:26:13;100003.34;;;22.64;25.40
22206;BME280;11272;50.104;8.754;2024-03-08T13:28:47;99998.28;;;22.60;25.47
22206;BME280;11272;50.104;8.754;2024-03-08T13:31:14;99998.09;;;22.39;25.54
22206;BME280;11272;50.104;8.754;2024-03-08T13:33:40;99990.56;;;21.60;25.78
22206;BME280;11272;50.104;8.754;2024-03-08T13:36:08;99982.81;;;20.81;26.44